Time;durP1;ratioP1;P1;durP2;ratioP2;P2;SDS_P1;SDS_P2;PMS_P1;PMS_P2;Temp;Humidity;BMP_temperature;BMP_pressure;BME280_temperature;BME280_humidity;BME280_pressure;Samples;Min_cycle;Max_cycle;Signal;HPM_P1;HPM_P2
2023/04/27 00:01:56;;;;;;;2.73;1.30;;;;;;;8.10;53.22;101709.75;4976380;28;97096;-50
2023/04/27 00:04:21;;;;;;;4.57;1.90;;;;;;;8.07;53.24;101702.41;4976871;28;97287;-50
2023/04/27 00:06:46;;;;;;;2.83;1.80;;;;;;;8.01;53.38;101699.50;4976777;28;97249;-50
2023/04/27 00:09:11;;;;;;;2.00;1.90;;;;;;;7.98;53.31;101702.38;4974262;28;104825;-50
2023/04/27 00:11:37;;;;;;;2.20;1.43;;;;;;;7.95;53.17;101700.53;4976948;28;98311;-51
2023/04/27 00:14:02;;;;;;;2.70;1.67;;;;;;;7.91;53.27;101702.63;4977109;28;97107;-51
2023/04/27 00:16:27;;;;;;;2.50;1.77;;;;;;;7.87;53.57;101697.28;4978623;28;96925;-51
2023/04/27 00:18:53;;;;;;;1.73;1.40;;;;;;;7.85;53.58;101704.41;4973522;28;107269;-51
2023/04/27 00:21:18;;;;;;;3.60;1.50;;;;;;;7.80;53.65;101699.53;4977896;28;96711;-51
2023/04/27 00:23:44;;;;;;;2.90;1.57;;;;;;;7.75;53.36;101706.34;4978879;28;96701;-51
2023/04/27 00:26:10;;;;;;;3.30;1.80;;;;;;;7.73;53.53;101702.53;4978250;28;96999;-51
2023/04/27 00:28:35;;;;;;;2.33;1.70;;;;;;;7.65;53.32;101702.00;4982903;28;96753;-50
2023/04/27 00:31:02;;;;;;;2.50;1.40;;;;;;;7.62;53.65;101700.19;4976462;28;99969;-51
2023/04/27 00:33:28;;;;;;;1.83;1.73;;;;;;;7.56;53.51;101694.50;4976528;28;97706;-50
2023/04/27 00:35:53;;;;;;;3.43;1.57;;;;;;;7.49;53.81;101694.75;4976311;28;96889;-51
2023/04/27 00:38:19;;;;;;;3.07;1.43;;;;;;;7.44;53.69;101694.56;4975046;28;97063;-51
2023/04/27 00:40:44;;;;;;;4.13;2.10;;;;;;;7.40;53.61;101685.72;4975818;28;97144;-51
2023/04/27 00:43:09;;;;;;;1.80;1.70;;;;;;;7.36;53.78;101685.06;4974580;28;96906;-50
2023/04/27 00:45:44;;;;;;;1.57;1.47;;;;;;;7.32;53.72;101689.88;4977364;28;99852;-50
2023/04/27 00:48:11;;;;;;;4.63;1.90;;;;;;;7.25;53.68;101699.09;4976227;28;97091;-51
2023/04/27 00:50:37;;;;;;;5.67;2.10;;;;;;;7.23;53.81;101690.56;4976656;28;97248;-50
2023/04/27 00:53:04;;;;;;;1.93;1.83;;;;;;;7.18;53.93;101691.16;4974639;28;96617;-51
2023/04/27 00:55:30;;;;;;;2.50;2.20;;;;;;;7.14;53.91;101689.75;4972802;28;97038;-51
2023/04/27 00:57:55;;;;;;;5.50;1.70;;;;;;;7.09;53.93;101693.81;4974399;28;98531;-51
2023/04/27 01:00:21;;;;;;;1.90;1.80;;;;;;;7.05;54.00;101695.13;4975204;28;96945;-51
2023/04/27 01:02:47;;;;;;;6.13;1.67;;;;;;;7.02;53.97;101698.75;4974168;28;96921;-51
2023/04/27 01:05:13;;;;;;;2.20;2.03;;;;;;;6.99;54.00;101697.66;4975358;28;96924;-52
2023/04/27 01:07:39;;;;;;;4.50;2.13;;;;;;;6.96;54.08;101695.81;4975955;28;97324;-50
2023/04/27 01:10:06;;;;;;;5.57;1.73;;;;;;;6.93;54.25;101699.44;4975950;28;97209;-51
2023/04/27 01:12:31;;;;;;;3.60;1.63;;;;;;;6.87;53.88;101701.19;4973984;28;97344;-50
2023/04/27 01:14:57;;;;;;;2.20;2.00;;;;;;;6.82;54.12;101713.47;4975240;28;96753;-50
2023/04/27 01:17:22;;;;;;;3.00;2.10;;;;;;;6.79;53.84;101708.13;4972174;28;97275;-51
2023/04/27 01:19:48;;;;;;;2.40;1.80;;;;;;;6.77;53.98;101708.53;4976411;28;102879;-50
2023/04/27 01:22:14;;;;;;;3.23;1.80;;;;;;;6.74;53.74;101712.16;4977241;28;97041;-51
2023/04/27 01:24:40;;;;;;;2.20;1.73;;;;;;;6.71;54.08;101713.03;4974970;28;96936;-50
2023/04/27 01:27:05;;;;;;;2.50;2.30;;;;;;;6.68;54.28;101724.84;4974021;28;97977;-51
2023/04/27 01:29:31;;;;;;;2.03;1.90;;;;;;;6.64;54.22;101734.38;4974566;28;97221;-51
2023/04/27 01:31:56;;;;;;;2.53;1.90;;;;;;;6.60;54.06;101729.00;4974859;28;97037;-51
2023/04/27 01:34:22;;;;;;;3.53;2.00;;;;;;;6.55;54.17;101732.28;4975542;28;96858;-51
2023/04/27 01:36:47;;;;;;;2.17;2.03;;;;;;;6.51;54.18;101741.81;4973159;28;102729;-51
2023/04/27 01:39:12;;;;;;;3.37;1.77;;;;;;;6.47;54.36;101732.94;4975306;28;97065;-51
2023/04/27 01:41:38;;;;;;;1.80;1.70;;;;;;;6.45;54.44;101746.28;4971909;28;97366;-51
2023/04/27 01:44:03;;;;;;;1.83;1.67;;;;;;;6.42;54.68;101745.19;4975574;28;97269;-51
2023/04/27 01:46:28;;;;;;;1.70;1.60;;;;;;;6.40;54.24;101746.84;4977129;28;96958;-49
2023/04/27 01:48:54;;;;;;;1.80;1.60;;;;;;;6.37;54.05;101747.72;4973849;28;96914;-49
2023/04/27 01:51:20;;;;;;;2.60;1.90;;;;;;;6.33;54.24;101753.28;4976226;28;96861;-51
2023/04/27 01:53:45;;;;;;;2.10;1.90;;;;;;;6.32;54.26;101756.44;4973257;28;97097;-51
2023/04/27 01:56:10;;;;;;;6.20;2.33;;;;;;;6.28;54.18;101763.97;4975684;28;97257;-51
2023/04/27 01:58:36;;;;;;;2.87;1.93;;;;;;;6.22;54.65;101761.03;4970655;28;97206;-51
2023/04/27 02:01:02;;;;;;;2.43;1.60;;;;;;;6.19;54.47;101758.38;4974803;28;97145;-51
2023/04/27 02:03:28;;;;;;;1.70;1.60;;;;;;;6.15;54.78;101763.19;4973836;28;97578;-51
2023/04/27 02:05:53;;;;;;;1.77;1.67;;;;;;;6.12;54.48;101766.78;4974314;28;96945;-52
2023/04/27 02:08:18;;;;;;;1.93;1.80;;;;;;;6.10;54.58;101772.69;4974301;28;97763;-51
2023/04/27 02:10:44;;;;;;;2.70;1.53;;;;;;;6.07;54.48;101771.59;4974153;28;96935;-51
2023/04/27 02:13:09;;;;;;;3.20;2.30;;;;;;;6.04;54.48;101764.28;4973838;28;96885;-51
2023/04/27 02:15:34;;;;;;;2.33;2.17;;;;;;;6.02;54.67;101769.41;4972370;28;97702;-51
2023/04/27 02:18:02;;;;;;;4.07;1.73;;;;;;;5.96;54.56;101775.84;4974555;28;96932;-51
2023/04/27 02:20:29;;;;;;;4.90;1.93;;;;;;;5.89;54.54;101779.53;4975752;28;97140;-51
2023/04/27 02:22:54;;;;;;;2.07;1.87;;;;;;;5.86;54.84;101785.84;4975206;28;97153;-51
2023/04/27 02:25:20;;;;;;;3.03;2.20;;;;;;;5.82;54.99;101787.09;4974339;28;106043;-51
2023/04/27 02:27:45;;;;;;;2.93;2.20;;;;;;;5.82;54.87;101779.69;4975235;28;97171;-51
2023/04/27 02:30:11;;;;;;;5.57;2.00;;;;;;;5.79;54.77;101783.28;4973278;28;97160;-51
2023/04/27 02:32:37;;;;;;;3.70;2.67;;;;;;;5.79;54.95;101779.78;4978384;28;96688;-51
2023/04/27 02:35:03;;;;;;;3.23;2.57;;;;;;;5.73;54.75;101782.28;4975648;28;97257;-51
2023/04/27 02:37:28;;;;;;;3.10;2.40;;;;;;;5.70;54.38;101774.19;4976650;28;97138;-51
2023/04/27 02:39:54;;;;;;;2.57;2.30;;;;;;;5.64;54.65;101771.19;4975556;28;96679;-51
2023/04/27 02:42:19;;;;;;;2.53;1.90;;;;;;;5.59;54.70;101773.72;4979350;28;96816;-50
2023/04/27 02:44:45;;;;;;;4.40;1.83;;;;;;;5.53;54.57;101784.38;4976799;28;97537;-51
2023/04/27 02:47:10;;;;;;;3.73;2.00;;;;;;;5.49;55.06;101778.25;4976034;28;97127;-52
2023/04/27 02:49:36;;;;;;;2.03;1.83;;;;;;;5.48;54.48;101776.72;4976241;28;96946;-51
2023/04/27 02:52:02;;;;;;;3.03;2.00;;;;;;;5.43;54.63;101779.97;4974717;28;97083;-49
2023/04/27 02:54:27;;;;;;;2.37;2.10;;;;;;;5.39;54.74;101779.28;4972762;28;97454;-51
2023/04/27 02:56:52;;;;;;;4.23;2.30;;;;;;;5.36;54.85;101779.34;4972383;28;96883;-51
2023/04/27 02:59:18;;;;;;;2.40;2.20;;;;;;;5.27;54.59;101769.81;4974735;28;96931;-50
2023/04/27 03:01:43;;;;;;;5.50;2.20;;;;;;;5.22;54.82;101781.25;4976693;28;97424;-50
2023/04/27 03:04:09;;;;;;;3.33;2.23;;;;;;;5.22;54.98;101773.06;4974897;28;96748;-51
2023/04/27 03:06:34;;;;;;;2.80;2.43;;;;;;;5.20;54.86;101766.50;4974316;28;97816;-51
2023/04/27 03:09:00;;;;;;;2.50;1.93;;;;;;;5.17;54.94;101768.16;4976336;28;97197;-51
2023/04/27 03:11:25;;;;;;;2.30;2.10;;;;;;;5.11;55.03;101766.34;4973589;28;97064;-52
2023/04/27 03:13:51;;;;;;;2.67;2.07;;;;;;;5.08;55.12;101773.44;4973864;28;97317;-50
2023/04/27 03:16:17;;;;;;;2.30;2.10;;;;;;;5.06;55.26;101770.38;4974237;28;96756;-51
2023/04/27 03:18:42;;;;;;;2.40;2.20;;;;;;;5.08;55.41;101776.16;4977014;28;97107;-51
2023/04/27 03:21:09;;;;;;;2.40;2.10;;;;;;;5.10;55.21;101773.00;4978110;28;96961;-50
2023/04/27 03:23:35;;;;;;;3.43;2.30;;;;;;;5.10;55.24;101770.25;4976479;28;97711;-50
2023/04/27 03:26:05;;;;;;;3.33;2.87;;;;;;;5.10;55.42;101779.22;4978809;28;97674;-52
2023/04/27 03:28:30;;;;;;;6.83;2.30;;;;;;;5.11;55.27;101782.72;4984986;28;97240;-51
2023/04/27 03:30:56;;;;;;;3.07;2.50;;;;;;;5.10;55.21;101778.44;4979166;28;97244;-49
2023/04/27 03:33:21;;;;;;;3.60;2.77;;;;;;;5.10;55.38;101773.00;4977246;28;110327;-51
2023/04/27 03:35:54;;;;;;;8.00;2.57;;;;;;;5.10;55.51;101781.19;4979369;28;96824;-52
2023/04/27 03:38:19;;;;;;;2.60;2.30;;;;;;;5.05;55.29;101782.44;4978895;28;96759;-51
2023/04/27 03:40:45;;;;;;;4.57;2.83;;;;;;;5.02;54.88;101777.09;4979858;28;96855;-51
2023/04/27 03:43:10;;;;;;;3.97;2.73;;;;;;;4.99;55.23;101789.63;4977863;28;97142;-51
2023/04/27 03:45:35;;;;;;;5.53;2.83;;;;;;;4.98;55.20;101784.59;4976248;28;97240;-48
2023/04/27 03:48:01;;;;;;;7.80;3.10;;;;;;;4.95;55.43;101782.72;4980201;28;98343;-55
2023/04/27 03:50:26;;;;;;;2.83;2.63;;;;;;;4.89;55.18;101778.97;4974607;28;97245;-51
2023/04/27 03:52:51;;;;;;;4.13;2.40;;;;;;;4.85;55.30;101781.00;4979094;28;106224;-51
2023/04/27 03:55:17;;;;;;;2.90;2.60;;;;;;;4.81;55.22;101774.84;4976502;28;97531;-51
2023/04/27 03:57:42;;;;;;;3.90;2.90;;;;;;;4.76;55.24;101786.28;4978157;28;97310;-51
2023/04/27 04:00:10;;;;;;;9.53;3.13;;;;;;;4.76;55.25;101789.75;4978298;28;97590;-50
2023/04/27 04:02:36;;;;;;;3.30;2.97;;;;;;;4.74;55.60;101799.56;4973498;28;97714;-52
2023/04/27 04:05:02;;;;;;;3.60;2.77;;;;;;;4.72;55.24;101796.50;4977576;28;98540;-51
2023/04/27 04:07:27;;;;;;;4.93;3.30;;;;;;;4.68;55.35;101802.03;4977503;28;97156;-50
2023/04/27 04:09:52;;;;;;;3.80;3.10;;;;;;;4.68;55.26;101812.91;4978257;28;99532;-51
2023/04/27 04:12:18;;;;;;;4.50;2.90;;;;;;;4.67;55.19;101807.91;4974092;28;97491;-50
2023/04/27 04:14:43;;;;;;;3.80;2.90;;;;;;;4.63;55.56;101807.22;4976445;28;112317;-51
2023/04/27 04:17:09;;;;;;;3.10;2.37;;;;;;;4.59;55.24;101812.72;4975958;28;96810;-49
2023/04/27 04:19:35;;;;;;;2.67;2.23;;;;;;;4.61;55.32;101807.63;4977023;28;97010;-51
2023/04/27 04:22:03;;;;;;;2.63;2.43;;;;;;;4.65;55.79;101807.56;4975983;28;97800;-51
2023/04/27 04:24:29;;;;;;;5.10;3.00;;;;;;;4.68;55.70;101812.16;4975892;28;97194;-50
2023/04/27 04:26:55;;;;;;;4.83;3.03;;;;;;;4.67;55.65;101800.50;4977044;28;97511;-50
2023/04/27 04:29:21;;;;;;;3.57;2.77;;;;;;;4.68;55.48;101812.16;4976509;28;96941;-50
2023/04/27 04:31:46;;;;;;;4.30;2.90;;;;;;;4.68;55.73;101814.88;4974048;28;97283;-50
2023/04/27 04:34:13;;;;;;;4.50;3.10;;;;;;;4.66;55.57;101811.81;4977781;28;97115;-50
2023/04/27 04:36:39;;;;;;;3.00;2.70;;;;;;;4.66;55.17;101815.31;4975679;28;97428;-50
2023/04/27 04:39:05;;;;;;;6.33;3.07;;;;;;;4.64;55.31;101811.47;4974614;28;97239;-50
2023/04/27 04:41:31;;;;;;;3.10;2.80;;;;;;;4.60;55.43;101813.50;4976170;28;96706;-51
2023/04/27 04:43:58;;;;;;;5.90;3.63;;;;;;;4.60;55.81;101805.31;4975221;28;97050;-50
2023/04/27 04:46:24;;;;;;;4.50;2.80;;;;;;;4.60;55.65;101813.50;4975004;28;97232;-50
2023/04/27 04:48:50;;;;;;;7.07;3.10;;;;;;;4.61;55.70;101812.31;4975562;28;97569;-50
2023/04/27 04:51:16;;;;;;;4.40;3.33;;;;;;;4.62;55.78;101816.56;4974585;28;96940;-50
2023/04/27 04:53:41;;;;;;;3.10;2.73;;;;;;;4.61;55.50;101815.03;4974496;28;97182;-50
2023/04/27 04:56:11;;;;;;;3.27;2.73;;;;;;;4.62;56.01;101814.63;4975107;28;96993;-50
2023/04/27 04:58:36;;;;;;;3.37;2.50;;;;;;;4.64;55.76;101822.34;4974565;28;96903;-50
2023/04/27 05:01:02;;;;;;;3.57;3.07;;;;;;;4.65;55.80;101821.97;4975849;28;96738;-50
2023/04/27 05:03:27;;;;;;;5.57;3.40;;;;;;;4.65;55.66;101816.50;4978038;28;101804;-50
2023/04/27 05:05:53;;;;;;;3.77;2.60;;;;;;;4.67;55.79;101826.97;4977484;28;96887;-50
2023/04/27 05:08:18;;;;;;;4.90;2.80;;;;;;;4.70;55.90;101828.84;4975071;28;97266;-50
2023/04/27 05:10:53;;;;;;;3.87;3.50;;;;;;;4.75;56.32;101825.63;4974023;28;97308;-50
2023/04/27 05:13:19;;;;;;;5.27;2.80;;;;;;;4.79;55.94;101834.50;4975348;28;97693;-50
2023/04/27 05:15:45;;;;;;;4.17;3.30;;;;;;;4.84;55.71;101829.31;4975259;28;97561;-49
2023/04/27 05:18:10;;;;;;;5.97;3.20;;;;;;;4.89;55.74;101833.50;4975773;28;97097;-50
2023/04/27 05:20:37;;;;;;;3.17;2.80;;;;;;;4.91;55.76;101831.13;4974997;28;97719;-50
2023/04/27 05:23:03;;;;;;;5.33;3.50;;;;;;;4.95;56.02;101826.34;4975824;28;97215;-50
2023/04/27 05:25:32;;;;;;;6.13;3.20;;;;;;;4.97;55.94;101832.91;4975630;28;97214;-50
2023/04/27 05:27:58;;;;;;;3.70;3.40;;;;;;;5.02;55.88;101837.09;4981833;28;97534;-50
2023/04/27 05:30:23;;;;;;;8.30;3.83;;;;;;;5.08;56.12;101843.56;4972909;28;97834;-50
2023/04/27 05:32:49;;;;;;;3.93;3.30;;;;;;;5.16;56.08;101844.94;4974021;28;97099;-50
2023/04/27 05:35:14;;;;;;;3.97;3.30;;;;;;;5.23;55.99;101853.72;4973121;28;97307;-50
2023/04/27 05:37:40;;;;;;;6.13;3.40;;;;;;;5.28;56.01;101847.00;4977259;28;97137;-50
2023/04/27 05:40:08;;;;;;;3.50;2.90;;;;;;;5.32;56.20;101845.72;4974982;28;97375;-50
2023/04/27 05:42:34;;;;;;;4.10;3.70;;;;;;;5.37;56.14;101841.72;4974308;28;97219;-50
2023/04/27 05:45:00;;;;;;;4.67;3.40;;;;;;;5.48;56.05;101849.63;4975300;28;99861;-50
2023/04/27 05:47:26;;;;;;;3.70;2.70;;;;;;;5.55;56.14;101854.91;4978699;28;97107;-50
2023/04/27 05:49:52;;;;;;;5.50;3.33;;;;;;;5.62;55.96;101850.03;4971651;28;107588;-50
2023/04/27 05:52:20;;;;;;;3.20;2.90;;;;;;;5.71;56.13;101855.66;4974831;28;97166;-50
2023/04/27 05:54:49;;;;;;;4.50;3.33;;;;;;;5.81;56.26;101871.00;4974807;28;97329;-50
2023/04/27 05:57:15;;;;;;;3.30;2.97;;;;;;;5.86;56.25;101872.47;4973973;28;97635;-50
2023/04/27 05:59:42;;;;;;;3.77;3.07;;;;;;;5.92;56.18;101871.50;4975935;28;97327;-50
2023/04/27 06:02:08;;;;;;;4.80;3.63;;;;;;;6.03;56.00;101860.28;4971763;28;97327;-50
2023/04/27 06:04:34;;;;;;;3.33;2.80;;;;;;;6.14;56.03;101865.50;4974844;28;97325;-50
2023/04/27 06:07:00;;;;;;;4.07;2.80;;;;;;;6.24;56.38;101864.44;4975425;28;96872;-50
2023/04/27 06:09:25;;;;;;;3.93;3.17;;;;;;;6.34;56.04;101866.09;4972293;28;97260;-50
2023/04/27 06:11:50;;;;;;;3.60;3.30;;;;;;;6.45;56.46;101866.56;4973624;28;102756;-50
2023/04/27 06:14:16;;;;;;;4.83;2.87;;;;;;;6.51;56.16;101868.31;4974467;28;98774;-50
2023/04/27 06:16:42;;;;;;;4.87;3.13;;;;;;;6.60;56.39;101876.66;4974199;28;97113;-50
2023/04/27 06:19:07;;;;;;;3.60;2.90;;;;;;;6.71;56.47;101876.34;4976050;28;97789;-50
2023/04/27 06:21:33;;;;;;;4.20;2.90;;;;;;;6.81;56.46;101891.69;4975431;28;97401;-50
2023/04/27 06:23:58;;;;;;;3.93;3.13;;;;;;;6.90;56.32;101869.16;4975172;28;97245;-50
2023/04/27 06:26:24;;;;;;;10.17;3.23;;;;;;;7.00;56.22;101881.72;4974747;28;96889;-50
2023/04/27 06:28:49;;;;;;;8.10;3.30;;;;;;;7.12;56.33;101884.47;4975195;28;97065;-50
2023/04/27 06:31:15;;;;;;;3.13;2.83;;;;;;;7.25;56.15;101893.44;4972075;28;106936;-50
2023/04/27 06:33:40;;;;;;;3.13;2.83;;;;;;;7.36;56.22;101893.88;4975703;28;97339;-50
2023/04/27 06:36:06;;;;;;;3.53;2.60;;;;;;;7.47;55.83;101874.34;4976413;28;97457;-50
2023/04/27 06:38:31;;;;;;;5.97;3.27;;;;;;;7.56;55.82;101894.41;4973325;28;97448;-50
2023/04/27 06:40:58;;;;;;;5.63;2.73;;;;;;;7.65;55.73;101890.22;4974122;28;97065;-50
2023/04/27 06:43:23;;;;;;;3.27;2.23;;;;;;;7.74;55.87;101893.81;4978028;28;97229;-50
2023/04/27 06:45:48;;;;;;;3.20;2.90;;;;;;;7.86;56.04;101892.25;4972615;28;97907;-50
2023/04/27 06:48:14;;;;;;;4.00;2.90;;;;;;;7.91;55.64;101888.94;4976262;28;99040;-50
2023/04/27 06:50:39;;;;;;;3.67;2.40;;;;;;;7.98;56.02;101894.94;4975901;28;97262;-50
2023/04/27 06:53:05;;;;;;;2.37;2.27;;;;;;;8.08;55.87;101890.31;4977071;28;97037;-50
2023/04/27 06:55:30;;;;;;;2.40;2.13;;;;;;;8.17;55.74;101901.34;4979693;28;97629;-50
2023/04/27 06:57:55;;;;;;;3.80;2.50;;;;;;;8.30;55.47;101896.59;4974975;28;97643;-50
2023/04/27 07:00:21;;;;;;;3.70;2.53;;;;;;;8.40;55.77;101898.19;4974419;28;97499;-50
2023/04/27 07:02:46;;;;;;;2.37;2.20;;;;;;;8.54;55.37;101899.69;4980476;28;97657;-50
2023/04/27 07:05:11;;;;;;;3.80;2.17;;;;;;;8.68;55.40;101899.91;4978068;28;97164;-50
2023/04/27 07:07:37;;;;;;;2.93;2.70;;;;;;;8.80;55.44;101901.78;4977148;28;97306;-50
2023/04/27 07:10:02;;;;;;;4.07;2.33;;;;;;;8.93;55.36;101902.47;4977889;28;109335;-50
2023/04/27 07:12:28;;;;;;;7.57;2.40;;;;;;;9.05;55.13;101904.38;4976461;28;97094;-49
2023/04/27 07:14:54;;;;;;;2.10;2.00;;;;;;;9.15;54.99;101904.41;4977335;28;98323;-50
2023/04/27 07:17:20;;;;;;;2.20;2.00;;;;;;;9.21;54.97;101911.59;4976755;28;97273;-50
2023/04/27 07:19:45;;;;;;;8.30;2.60;;;;;;;9.26;54.95;101910.25;4975246;28;97279;-50
2023/04/27 07:22:10;;;;;;;3.90;2.03;;;;;;;9.37;54.94;101913.34;4977902;28;99780;-50
2023/04/27 07:24:36;;;;;;;2.43;2.23;;;;;;;9.47;54.78;101907.41;4979365;28;97297;-50
2023/04/27 07:27:02;;;;;;;2.10;1.90;;;;;;;9.57;54.55;101895.22;4978476;28;100148;-50
2023/04/27 07:29:29;;;;;;;2.40;2.20;;;;;;;9.64;54.30;101905.16;4975122;28;97330;-50
2023/04/27 07:31:54;;;;;;;2.97;2.10;;;;;;;9.76;54.33;101912.53;4976073;28;97121;-50
2023/04/27 07:34:20;;;;;;;2.77;1.70;;;;;;;9.82;54.28;101902.44;4978877;28;96904;-50
2023/04/27 07:36:45;;;;;;;1.87;1.60;;;;;;;9.93;54.27;101900.03;4978794;28;107564;-50
2023/04/27 07:39:11;;;;;;;1.80;1.70;;;;;;;10.13;54.07;101900.38;4976664;28;97250;-50
2023/04/27 07:41:36;;;;;;;1.43;1.33;;;;;;;10.30;53.50;101904.34;4979294;28;97476;-50
2023/04/27 07:44:02;;;;;;;3.23;1.93;;;;;;;10.36;53.56;101904.47;4979679;28;96681;-50
2023/04/27 07:46:29;;;;;;;2.23;1.33;;;;;;;10.48;53.60;101904.28;4977156;28;98554;-50
2023/04/27 07:48:54;;;;;;;1.70;1.60;;;;;;;10.65;53.50;101903.97;4977012;28;97372;-50
2023/04/27 07:51:20;;;;;;;1.63;1.53;;;;;;;10.70;53.19;101906.09;4978821;28;96807;-50
2023/04/27 07:53:45;;;;;;;2.40;1.57;;;;;;;10.80;53.34;101902.88;4976178;28;97230;-50
2023/04/27 07:56:11;;;;;;;4.70;1.50;;;;;;;10.86;52.95;101903.75;4977468;28;97000;-50
2023/04/27 07:58:36;;;;;;;2.10;1.10;;;;;;;10.81;52.54;101900.88;4978177;28;98199;-50
2023/04/27 08:01:02;;;;;;;1.00;0.70;;;;;;;10.73;52.72;101905.94;4975167;28;96758;-50
2023/04/27 08:03:27;;;;;;;1.10;1.00;;;;;;;10.86;52.57;101898.25;4976287;28;97154;-50
2023/04/27 08:05:53;;;;;;;2.93;1.30;;;;;;;11.10;52.37;101903.81;4977715;28;97599;-49
2023/04/27 08:08:18;;;;;;;5.90;0.93;;;;;;;11.24;51.93;101889.38;4975708;28;97621;-50
2023/04/27 08:10:43;;;;;;;2.60;0.90;;;;;;;11.46;51.66;101894.63;4973874;28;96934;-50
2023/04/27 08:13:09;;;;;;;3.07;0.90;;;;;;;11.57;50.95;101895.66;4976978;28;96989;-50
2023/04/27 08:15:35;;;;;;;1.17;1.03;;;;;;;11.62;50.86;101885.97;4980001;28;97782;-50
2023/04/27 08:18:01;;;;;;;3.87;0.90;;;;;;;11.69;50.60;101894.66;4973952;28;97266;-50
2023/04/27 08:20:26;;;;;;;2.80;1.40;;;;;;;11.67;50.26;101883.34;4976321;28;97228;-50
2023/04/27 08:22:51;;;;;;;1.00;0.97;;;;;;;11.81;50.38;101892.91;4975601;28;96952;-50
2023/04/27 08:25:17;;;;;;;3.40;0.97;;;;;;;12.02;50.10;101887.06;4977054;28;97690;-50
2023/04/27 08:27:42;;;;;;;2.40;1.20;;;;;;;11.94;48.74;101891.44;4975653;28;97293;-49
2023/04/27 08:30:08;;;;;;;1.73;1.27;;;;;;;11.88;49.53;101876.00;4978990;28;97285;-50
2023/04/27 08:32:33;;;;;;;1.57;1.00;;;;;;;12.06;49.75;101886.13;4978215;28;97395;-50
2023/04/27 08:34:59;;;;;;;0.80;0.70;;;;;;;12.19;49.22;101878.38;4975552;28;97021;-50
2023/04/27 08:37:24;;;;;;;1.03;0.77;;;;;;;12.26;49.02;101878.75;4975546;28;105161;-50
2023/04/27 08:39:49;;;;;;;1.90;0.80;;;;;;;12.45;48.59;101876.59;4979484;28;97273;-50
2023/04/27 08:42:15;;;;;;;4.43;0.77;;;;;;;12.43;48.41;101877.03;4977539;28;97358;-50
2023/04/27 08:44:42;;;;;;;2.47;0.83;;;;;;;12.47;48.14;101869.31;4975323;28;100551;-50
2023/04/27 08:47:08;;;;;;;2.50;1.07;;;;;;;12.46;47.52;101870.56;4977393;28;99099;-50
2023/04/27 08:49:37;;;;;;;1.97;0.93;;;;;;;12.67;47.73;101868.66;4976230;28;96692;-50
2023/04/27 08:52:02;;;;;;;2.80;1.00;;;;;;;12.96;47.07;101865.09;4976609;28;97227;-50
2023/04/27 08:54:28;;;;;;;0.80;0.80;;;;;;;13.08;46.51;101856.56;4977131;28;97016;-50
2023/04/27 08:56:53;;;;;;;3.57;1.30;;;;;;;13.03;46.39;101865.47;4977288;28;97261;-50
2023/04/27 08:59:18;;;;;;;1.10;1.10;;;;;;;13.10;46.71;101853.31;4979959;28;97474;-50
2023/04/27 09:01:47;;;;;;;1.30;1.00;;;;;;;13.29;46.09;101855.34;4977566;28;97221;-51
2023/04/27 09:04:13;;;;;;;1.43;0.70;;;;;;;13.39;46.28;101851.19;4977901;28;97881;-50
2023/04/27 09:06:39;;;;;;;2.13;0.67;;;;;;;13.32;46.70;101854.34;4981215;28;97154;-50
2023/04/27 09:09:06;;;;;;;4.00;0.87;;;;;;;13.62;46.74;101857.03;4977540;28;97060;-50
2023/04/27 09:11:36;;;;;;;1.20;0.70;;;;;;;13.94;45.15;101859.41;4975153;28;97068;-50
2023/04/27 09:14:15;;;;;;;1.23;0.70;;;;;;;14.06;43.93;101855.53;4977972;28;97317;-50
2023/04/27 09:16:41;;;;;;;0.87;0.70;;;;;;;14.21;45.83;101856.19;4974482;28;97540;-50
2023/04/27 09:19:06;;;;;;;0.87;0.87;;;;;;;14.49;45.58;101855.72;4974502;28;97065;-50
2023/04/27 09:21:32;;;;;;;1.40;0.90;;;;;;;14.64;45.03;101862.66;4976841;28;97014;-50
2023/04/27 09:23:57;;;;;;;1.30;1.13;;;;;;;14.70;44.68;101862.72;4975228;28;97276;-50
2023/04/27 09:26:25;;;;;;;2.10;1.20;;;;;;;14.31;44.36;101862.34;4975720;28;97277;-50
2023/04/27 09:28:53;;;;;;;0.90;0.70;;;;;;;14.17;45.04;101865.97;4977246;28;96939;-50
2023/04/27 09:31:19;;;;;;;0.80;0.73;;;;;;;14.44;45.10;101871.03;4974882;28;97458;-50
2023/04/27 09:33:46;;;;;;;0.80;0.63;;;;;;;14.64;44.87;101867.44;4974593;28;97162;-50
2023/04/27 09:36:12;;;;;;;1.20;0.70;;;;;;;14.90;44.63;101866.13;4974412;28;96725;-50
2023/04/27 09:38:38;;;;;;;1.77;1.00;;;;;;;15.02;44.28;101872.53;4976865;28;97159;-50
2023/04/27 09:41:03;;;;;;;1.77;0.77;;;;;;;15.02;43.54;101873.28;4974821;28;97554;-50
2023/04/27 09:43:30;;;;;;;1.27;0.90;;;;;;;14.92;43.70;101860.84;4975922;28;100341;-50
2023/04/27 09:45:57;;;;;;;0.87;0.83;;;;;;;14.99;44.00;101862.41;4973424;28;96852;-50
2023/04/27 09:48:23;;;;;;;3.23;1.00;;;;;;;14.93;43.52;101864.41;4974737;28;97892;-51
2023/04/27 09:50:50;;;;;;;2.70;0.70;;;;;;;14.85;43.58;101858.53;4977830;28;96690;-50
2023/04/27 09:53:23;;;;;;;1.97;0.90;;;;;;;14.89;43.22;101847.25;4975853;28;97711;-50
2023/04/27 09:56:02;;;;;;;1.70;0.90;;;;;;;14.96;43.40;101849.56;4973423;28;97300;-51
2023/04/27 09:58:45;;;;;;;1.93;0.80;;;;;;;14.97;40.28;101851.81;4977417;28;97045;-50
2023/04/27 10:01:46;;;;;;;0.90;0.60;;;;;;;14.90;41.79;101857.06;4975961;28;96961;-50
2023/04/27 10:04:29;;;;;;;2.30;0.80;;;;;;;14.81;41.92;101849.69;4972478;28;97264;-50
2023/04/27 10:07:08;;;;;;;0.90;0.70;;;;;;;14.81;43.47;101863.53;4974050;28;97309;-50
2023/04/27 10:09:55;;;;;;;1.40;0.80;;;;;;;14.80;43.50;101864.81;4974836;28;97105;-50
2023/04/27 10:12:25;;;;;;;3.30;1.03;;;;;;;14.80;43.41;101864.81;4975660;28;97242;-50
2023/04/27 10:14:51;;;;;;;0.87;0.70;;;;;;;14.79;43.54;101868.81;4974646;28;98440;-50
2023/04/27 10:17:17;;;;;;;1.23;0.90;;;;;;;14.85;43.43;101861.31;4976204;28;97085;-50
2023/04/27 10:20:00;;;;;;;2.73;0.90;;;;;;;14.93;42.16;101867.16;4974757;28;97210;-50
2023/04/27 10:22:45;;;;;;;3.50;1.00;;;;;;;15.01;41.88;101863.44;4972462;28;97254;-50
2023/04/27 10:25:21;;;;;;;1.70;0.97;;;;;;;15.11;42.97;101858.47;4974658;28;97337;-51
2023/04/27 10:27:51;;;;;;;1.47;1.00;;;;;;;15.31;42.53;101861.09;4972519;28;97204;-50
2023/04/27 10:30:17;;;;;;;1.20;1.00;;;;;;;15.44;42.74;101855.91;4973825;28;97183;-50
2023/04/27 10:32:54;;;;;;;0.60;0.60;;;;;;;15.66;41.28;101860.81;4974702;28;97231;-50
2023/04/27 10:35:22;;;;;;;0.97;0.87;;;;;;;15.80;42.10;101859.09;4975554;28;97714;-50
2023/04/27 10:37:48;;;;;;;1.20;0.70;;;;;;;15.93;42.17;101860.16;4973678;28;97147;-50
2023/04/27 10:40:16;;;;;;;1.47;0.80;;;;;;;16.23;41.93;101872.34;4974433;28;97472;-50
2023/04/27 10:42:45;;;;;;;2.27;1.07;;;;;;;16.41;41.42;101857.22;4972263;28;97023;-51
2023/04/27 10:45:12;;;;;;;1.40;0.83;;;;;;;16.37;41.37;101859.47;4972731;28;97037;-50
2023/04/27 10:47:40;;;;;;;1.53;0.80;;;;;;;16.29;41.37;101869.56;4974471;28;97186;-50
2023/04/27 10:50:07;;;;;;;0.77;0.77;;;;;;;16.15;41.02;101862.97;4972493;28;96745;-51
2023/04/27 10:52:32;;;;;;;2.03;1.10;;;;;;;16.00;40.96;101867.22;4976653;28;97300;-50
2023/04/27 10:55:11;;;;;;;1.43;0.87;;;;;;;15.81;40.34;101863.38;4975583;28;97067;-51
2023/04/27 10:57:51;;;;;;;1.80;0.90;;;;;;;15.68;40.51;101864.59;4974431;28;97238;-51
2023/04/27 11:00:31;;;;;;;1.80;1.20;;;;;;;15.61;40.70;101865.09;4974058;28;97001;-50
2023/04/27 11:03:10;;;;;;;1.73;0.70;;;;;;;15.51;41.53;101857.44;4975358;28;97466;-51
2023/04/27 11:05:36;;;;;;;2.20;0.93;;;;;;;15.37;41.58;101861.16;4972320;28;97954;-50
2023/04/27 11:08:13;;;;;;;0.83;0.70;;;;;;;15.51;40.00;101863.00;4975232;28;97498;-50
2023/04/27 11:10:49;;;;;;;2.70;1.20;;;;;;;15.98;40.07;101853.84;4970914;28;97298;-50
2023/04/27 11:13:17;;;;;;;1.30;0.80;;;;;;;16.49;40.96;101856.19;4977463;28;97124;-50
2023/04/27 11:15:54;;;;;;;3.53;1.13;;;;;;;16.93;38.65;101849.13;4974113;28;97364;-50
2023/04/27 11:18:21;;;;;;;4.30;0.97;;;;;;;17.19;40.06;101844.81;4975344;28;96795;-50
2023/04/27 11:20:50;;;;;;;2.00;1.13;;;;;;;17.41;39.16;101841.19;4974735;28;97256;-51
2023/04/27 11:23:26;;;;;;;0.80;0.80;;;;;;;17.64;37.98;101847.47;4976205;28;97291;-50
2023/04/27 11:25:52;;;;;;;0.87;0.67;;;;;;;17.58;39.19;101846.75;4975607;28;97396;-50
2023/04/27 11:28:24;;;;;;;2.00;0.87;;;;;;;17.31;39.01;101847.56;4975111;28;97260;-50